Time;durP1;ratioP1;P1;durP2;ratioP2;P2;SDS_P1;SDS_P2;PMS_P1;PMS_P2;Temp;Humidity;BMP_temperature;BMP_pressure;BME280_temperature;BME280_humidity;BME280_pressure;Samples;Min_cycle;Max_cycle;Signal;HPM_P1;HPM_P2
2021/09/01 00:01:26;;;;;;;16.17;7.83;;;14.50;99.90;;;;;;5001297;28;20273;-75
2021/09/01 00:03:52;;;;;;;15.33;7.27;;;14.20;99.90;;;;;;4999502;28;20588;-75
2021/09/01 00:06:19;;;;;;;16.67;9.07;;;14.20;99.90;;;;;;5002415;28;20229;-76
2021/09/01 00:08:49;;;;;;;10.63;6.83;;;14.20;99.90;;;;;;5008128;28;21205;-76
2021/09/01 00:11:14;;;;;;;25.17;8.10;;;14.20;99.90;;;;;;5011964;28;20434;-76
2021/09/01 00:13:41;;;;;;;17.40;6.50;;;14.20;99.90;;;;;;5011223;28;20795;-76
2021/09/01 00:16:06;;;;;;;10.00;7.30;;;14.30;99.90;;;;;;5011683;28;20174;-76
2021/09/01 00:18:32;;;;;;;14.63;8.20;;;;;;;;;;5004436;28;20912;-76
2021/09/01 00:20:58;;;;;;;14.47;8.23;;;14.30;99.90;;;;;;5009063;28;20218;-76
2021/09/01 00:23:24;;;;;;;13.70;7.83;;;14.30;99.90;;;;;;5006749;28;20494;-76
2021/09/01 00:25:49;;;;;;;16.00;8.40;;;13.90;99.90;;;;;;5004263;28;20182;-76
2021/09/01 00:28:15;;;;;;;16.63;8.07;;;14.30;99.90;;;;;;5002586;28;20861;-76
2021/09/01 00:30:40;;;;;;;19.47;8.30;;;14.30;99.90;;;;;;4997473;28;20183;-77
2021/09/01 00:33:06;;;;;;;13.87;8.53;;;14.30;99.90;;;;;;5011585;28;20190;-77
2021/09/01 00:35:32;;;;;;;11.93;6.60;;;14.50;99.90;;;;;;5010195;28;21376;-77
2021/09/01 00:37:57;;;;;;;19.30;7.13;;;14.30;99.90;;;;;;4998104;28;20620;-77
2021/09/01 00:40:23;;;;;;;13.80;6.97;;;14.60;99.90;;;;;;5004286;28;20174;-77
2021/09/01 00:42:49;;;;;;;12.50;6.80;;;14.40;99.90;;;;;;5005077;28;20191;-76
2021/09/01 00:45:15;;;;;;;12.60;6.50;;;14.30;99.90;;;;;;5004739;28;20197;-77
2021/09/01 00:47:41;;;;;;;12.03;7.53;;;14.40;99.90;;;;;;5004235;28;20178;-77
2021/09/01 00:50:08;;;;;;;11.40;6.53;;;14.40;99.90;;;;;;5003606;28;20478;-77
2021/09/01 00:52:37;;;;;;;15.43;8.17;;;14.40;99.90;;;;;;5005669;28;20202;-77
2021/09/01 00:55:04;;;;;;;22.90;7.60;;;14.40;99.90;;;;;;5001135;28;20445;-77
2021/09/01 00:57:30;;;;;;;12.63;6.40;;;14.40;99.90;;;;;;5004072;28;20438;-77
2021/09/01 00:59:56;;;;;;;15.70;7.50;;;14.40;99.90;;;;;;4994811;28;20438;-77
2021/09/01 01:02:23;;;;;;;13.20;6.87;;;14.50;99.90;;;;;;5015654;28;20442;-78
2021/09/01 01:04:48;;;;;;;14.70;6.50;;;14.50;99.90;;;;;;4993171;28;22893;-77
2021/09/01 01:07:14;;;;;;;11.53;7.00;;;14.50;99.90;;;;;;5004626;28;20563;-77
2021/09/01 01:09:40;;;;;;;15.70;8.00;;;14.50;99.90;;;;;;5004553;28;20190;-77
2021/09/01 01:12:14;;;;;;;10.83;7.47;;;14.60;99.90;;;;;;5004878;28;20167;-77
2021/09/01 01:14:48;;;;;;;21.53;8.70;;;14.60;99.90;;;;;;5000410;28;20450;-76
2021/09/01 01:17:16;;;;;;;13.50;6.53;;;14.60;99.90;;;;;;4998226;28;20527;-77
2021/09/01 01:19:46;;;;;;;17.30;5.77;;;14.60;99.90;;;;;;4999762;28;20433;-77
2021/09/01 01:22:15;;;;;;;10.40;6.70;;;14.60;99.90;;;;;;5001749;28;20483;-77
2021/09/01 01:25:04;;;;;;;12.60;7.90;;;14.60;99.90;;;;;;5001536;28;20462;-77
2021/09/01 01:27:33;;;;;;;26.73;8.33;;;14.60;99.90;;;;;;5006782;28;20434;-77
2021/09/01 01:30:15;;;;;;;8.87;6.33;;;14.70;99.90;;;;;;5001553;28;20426;-77
2021/09/01 01:32:44;;;;;;;13.03;7.33;;;14.60;99.90;;;;;;5007961;28;20433;-77
2021/09/01 01:35:11;;;;;;;10.83;6.80;;;14.70;99.90;;;;;;5004209;28;20448;-77
2021/09/01 01:37:40;;;;;;;12.57;7.13;;;14.70;99.90;;;;;;5010896;28;20452;-77
2021/09/01 01:40:07;;;;;;;14.33;7.03;;;14.70;99.90;;;;;;5003300;28;20529;-77
2021/09/01 01:42:41;;;;;;;13.27;7.87;;;14.70;99.90;;;;;;5007182;28;20432;-76
2021/09/01 01:45:08;;;;;;;10.63;6.80;;;14.80;99.90;;;;;;5003697;28;21064;-77
2021/09/01 01:47:34;;;;;;;22.70;10.13;;;14.70;99.90;;;;;;5015626;28;20879;-77
2021/09/01 01:49:59;;;;;;;23.43;8.87;;;14.70;99.90;;;;;;5005171;28;20425;-77
2021/09/01 01:52:25;;;;;;;11.97;6.90;;;14.80;99.90;;;;;;5008146;28;20621;-77
2021/09/01 01:54:50;;;;;;;8.60;7.13;;;14.70;99.90;;;;;;5005072;28;20193;-77
2021/09/01 01:57:16;;;;;;;10.90;6.97;;;14.70;99.90;;;;;;5008370;28;20186;-77
2021/09/01 01:59:42;;;;;;;13.03;8.50;;;14.70;99.90;;;;;;5006279;28;20642;-77
2021/09/01 02:02:07;;;;;;;13.80;7.70;;;14.70;99.90;;;;;;5028009;28;20646;-76
2021/09/01 02:04:33;;;;;;;11.93;8.13;;;14.70;99.90;;;;;;5005275;28;20552;-76
2021/09/01 02:06:59;;;;;;;13.27;8.00;;;14.80;99.90;;;;;;5011745;28;20272;-77
2021/09/01 02:09:24;;;;;;;23.13;10.27;;;14.70;99.90;;;;;;5005892;28;20177;-77
2021/09/01 02:11:50;;;;;;;17.83;10.00;;;14.70;99.90;;;;;;5011427;28;20262;-77
2021/09/01 02:14:16;;;;;;;20.67;8.90;;;14.80;99.90;;;;;;5005219;28;20186;-77
2021/09/01 02:16:41;;;;;;;11.97;8.00;;;14.70;99.90;;;;;;5005522;28;20265;-77
2021/09/01 02:19:07;;;;;;;15.30;8.53;;;14.70;99.90;;;;;;5004020;28;20524;-77
2021/09/01 02:21:32;;;;;;;17.17;9.53;;;14.70;99.90;;;;;;5004788;28;20537;-77
2021/09/01 02:23:58;;;;;;;19.37;9.10;;;14.70;99.90;;;;;;5006707;28;20230;-77
2021/09/01 02:26:24;;;;;;;24.57;8.70;;;14.90;99.90;;;;;;5010571;28;20182;-77
2021/09/01 02:28:49;;;;;;;21.73;9.90;;;14.60;99.90;;;;;;5005623;28;20174;-77
2021/09/01 02:31:15;;;;;;;18.53;11.20;;;14.70;99.90;;;;;;5003407;28;20218;-77
2021/09/01 02:33:41;;;;;;;12.23;8.70;;;14.60;99.90;;;;;;5009521;28;20178;-76
2021/09/01 02:36:07;;;;;;;13.53;7.80;;;14.60;99.90;;;;;;5008427;28;20652;-77
2021/09/01 02:38:33;;;;;;;18.87;9.90;;;;;;;;;;5005643;28;20186;-77
2021/09/01 02:40:58;;;;;;;13.13;8.53;;;14.60;99.90;;;;;;5010261;28;20427;-76
2021/09/01 02:43:24;;;;;;;16.93;9.10;;;14.60;99.90;;;;;;5010211;28;20465;-76
2021/09/01 02:45:50;;;;;;;13.23;7.43;;;14.60;99.90;;;;;;5007652;28;20175;-77
2021/09/01 02:48:15;;;;;;;15.73;8.80;;;14.60;99.90;;;;;;5008317;28;20175;-77
2021/09/01 02:50:41;;;;;;;14.13;9.10;;;14.70;99.90;;;;;;5010924;28;20576;-77
2021/09/01 02:53:07;;;;;;;19.67;9.70;;;14.60;99.90;;;;;;5002178;28;20302;-77
2021/09/01 02:55:32;;;;;;;19.73;8.83;;;14.60;99.90;;;;;;5002949;28;20180;-77
2021/09/01 02:57:58;;;;;;;15.17;9.10;;;14.70;99.90;;;;;;5007954;28;20205;-76
2021/09/01 03:00:24;;;;;;;15.73;9.00;;;14.70;99.90;;;;;;5001255;28;20178;-76
2021/09/01 03:02:49;;;;;;;19.33;9.43;;;14.70;99.90;;;;;;4995810;28;20182;-77
2021/09/01 03:05:15;;;;;;;22.97;10.30;;;14.60;99.90;;;;;;5004260;28;20213;-77
2021/09/01 03:07:41;;;;;;;19.00;9.23;;;14.60;99.90;;;;;;5023213;28;20232;-77
2021/09/01 03:10:07;;;;;;;18.53;10.00;;;14.60;99.90;;;;;;5000607;28;20437;-77
2021/09/01 03:12:33;;;;;;;18.13;9.73;;;14.60;99.90;;;;;;5012014;28;20179;-77
2021/09/01 03:14:58;;;;;;;19.37;9.30;;;15.10;99.90;;;;;;5006880;28;20775;-77
2021/09/01 03:17:24;;;;;;;17.07;9.23;;;14.70;99.90;;;;;;5006144;28;20190;-77
2021/09/01 03:19:50;;;;;;;19.20;8.47;;;14.70;99.90;;;;;;5007239;28;20529;-77
2021/09/01 03:22:15;;;;;;;22.67;9.07;;;14.60;99.90;;;;;;5002614;28;20181;-77
2021/09/01 03:24:41;;;;;;;26.50;7.87;;;14.70;99.90;;;;;;5000589;28;20206;-77
2021/09/01 03:27:06;;;;;;;17.00;7.77;;;14.70;99.90;;;;;;5010744;28;20174;-76
2021/09/01 03:29:32;;;;;;;15.97;7.73;;;14.80;99.90;;;;;;5008407;28;20179;-77
2021/09/01 03:31:58;;;;;;;16.70;8.90;;;;;;;;;;5009262;28;20575;-77
2021/09/01 03:34:24;;;;;;;12.03;6.97;;;14.60;99.90;;;;;;5006024;28;20219;-77
2021/09/01 03:36:50;;;;;;;17.73;7.00;;;14.50;99.90;;;;;;5002648;28;20453;-77
2021/09/01 03:39:15;;;;;;;18.00;8.50;;;14.50;99.90;;;;;;5003897;28;20442;-77
2021/09/01 03:41:41;;;;;;;22.00;8.17;;;14.40;99.90;;;;;;5007795;28;20536;-77
2021/09/01 03:44:06;;;;;;;22.60;7.93;;;14.40;99.90;;;;;;5006010;28;20742;-77
2021/09/01 03:46:32;;;;;;;12.43;8.47;;;14.40;99.90;;;;;;5010664;28;20240;-76
2021/09/01 03:48:58;;;;;;;11.90;6.10;;;14.40;99.90;;;;;;5008674;28;20754;-77
2021/09/01 03:51:23;;;;;;;13.67;7.90;;;14.30;99.90;;;;;;5011201;28;20568;-76
2021/09/01 03:53:49;;;;;;;20.60;8.07;;;14.30;99.90;;;;;;5005594;28;20187;-77
2021/09/01 03:56:15;;;;;;;16.63;8.17;;;14.40;99.90;;;;;;5007086;28;20646;-77
2021/09/01 03:58:40;;;;;;;19.40;8.20;;;14.50;99.90;;;;;;5005104;28;20214;-77
2021/09/01 04:01:06;;;;;;;16.10;8.30;;;14.30;99.90;;;;;;5007049;28;20179;-77
2021/09/01 04:03:32;;;;;;;12.07;7.53;;;;;;;;;;5004847;28;20506;-77
2021/09/01 04:05:57;;;;;;;14.90;8.30;;;14.30;99.90;;;;;;5008108;28;20186;-77
2021/09/01 04:08:23;;;;;;;12.23;9.50;;;14.20;99.90;;;;;;5009716;28;20433;-77
2021/09/01 04:10:49;;;;;;;13.13;9.33;;;14.30;99.90;;;;;;5008895;28;20193;-77
2021/09/01 04:13:15;;;;;;;15.30;8.53;;;14.20;99.90;;;;;;5008471;28;20186;-77
2021/09/01 04:15:40;;;;;;;11.63;7.70;;;14.10;99.90;;;;;;5000630;28;20213;-77
2021/09/01 04:18:06;;;;;;;15.77;8.77;;;14.10;99.90;;;;;;5009421;28;20834;-77
2021/09/01 04:20:32;;;;;;;15.77;9.20;;;14.10;99.90;;;;;;5005782;28;20628;-77
2021/09/01 04:22:58;;;;;;;16.17;9.70;;;14.10;99.90;;;;;;5006868;28;20195;-77
2021/09/01 04:25:24;;;;;;;16.40;8.73;;;14.10;99.90;;;;;;4997150;28;20481;-77
2021/09/01 04:27:50;;;;;;;11.00;7.70;;;14.10;99.90;;;;;;5008494;28;20190;-76
2021/09/01 04:30:15;;;;;;;13.03;7.97;;;14.10;99.90;;;;;;5001035;28;20210;-77
2021/09/01 04:32:41;;;;;;;12.37;6.77;;;14.10;99.90;;;;;;5006309;28;20186;-77
2021/09/01 04:35:07;;;;;;;12.63;8.20;;;14.00;99.90;;;;;;5008303;28;20271;-77
2021/09/01 04:37:33;;;;;;;15.27;8.83;;;13.90;99.90;;;;;;5007261;28;20188;-77
2021/09/01 04:39:58;;;;;;;9.43;7.67;;;13.90;99.90;;;;;;5001823;28;20437;-77
2021/09/01 04:42:24;;;;;;;14.57;8.20;;;13.90;99.90;;;;;;5005443;28;20249;-76
2021/09/01 04:44:50;;;;;;;12.77;7.80;;;13.80;99.90;;;;;;5004488;28;20341;-77
2021/09/01 04:47:15;;;;;;;12.70;8.30;;;14.00;99.90;;;;;;5004432;28;20264;-77
2021/09/01 04:49:41;;;;;;;8.87;7.70;;;13.90;99.90;;;;;;4998273;28;20562;-77
2021/09/01 04:52:07;;;;;;;13.77;7.73;;;13.80;99.90;;;;;;5007060;28;20261;-77
2021/09/01 04:54:33;;;;;;;12.70;8.20;;;13.80;99.90;;;;;;5003948;28;20210;-77
2021/09/01 04:56:58;;;;;;;10.57;7.60;;;13.80;99.90;;;;;;5003479;28;20193;-77
2021/09/01 04:59:24;;;;;;;10.50;7.37;;;13.70;99.90;;;;;;4999540;28;20470;-77
2021/09/01 05:01:49;;;;;;;15.97;9.07;;;13.80;99.90;;;;;;4998721;28;20182;-77
2021/09/01 05:04:15;;;;;;;16.40;8.97;;;13.80;99.90;;;;;;4993443;28;20195;-76
2021/09/01 05:06:41;;;;;;;10.20;7.50;;;13.90;99.90;;;;;;5000195;28;20669;-77
2021/09/01 05:09:06;;;;;;;17.07;9.10;;;13.70;99.90;;;;;;4998374;28;20184;-77
2021/09/01 05:11:32;;;;;;;16.07;7.67;;;13.70;99.90;;;;;;5010267;28;20187;-77
2021/09/01 05:13:58;;;;;;;10.23;7.57;;;13.60;99.90;;;;;;5002972;28;20190;-77
2021/09/01 05:16:23;;;;;;;11.93;7.90;;;13.60;99.90;;;;;;4995139;28;20248;-77
2021/09/01 05:18:49;;;;;;;9.93;7.60;;;13.60;99.90;;;;;;5001377;28;20265;-77
2021/09/01 05:21:18;;;;;;;12.20;7.63;;;13.60;99.90;;;;;;5004136;28;20186;-77
2021/09/01 05:23:46;;;;;;;10.00;6.90;;;13.60;99.90;;;;;;5009013;28;20210;-77
2021/09/01 05:26:17;;;;;;;12.23;7.00;;;13.70;99.90;;;;;;5005963;28;20490;-77
2021/09/01 05:28:44;;;;;;;12.07;7.83;;;13.70;99.90;;;;;;4999244;28;20448;-77
2021/09/01 05:31:10;;;;;;;10.20;8.20;;;13.70;99.90;;;;;;5007962;28;20922;-77
2021/09/01 05:33:40;;;;;;;12.70;8.30;;;13.70;99.90;;;;;;5010021;28;20484;-77
2021/09/01 05:36:06;;;;;;;16.93;7.90;;;13.60;99.90;;;;;;5013434;28;20516;-76
2021/09/01 05:38:33;;;;;;;11.03;8.40;;;13.60;99.90;;;;;;5004394;28;20532;-77
2021/09/01 05:41:00;;;;;;;12.67;8.30;;;13.70;99.90;;;;;;5013948;28;20171;-77
2021/09/01 05:43:26;;;;;;;11.20;7.40;;;13.70;99.90;;;;;;5004622;28;20466;-77
2021/09/01 05:45:52;;;;;;;11.27;7.93;;;13.70;99.90;;;;;;5007079;28;20433;-77
2021/09/01 05:48:22;;;;;;;7.50;6.10;;;13.70;99.90;;;;;;5008324;28;20503;-77
2021/09/01 05:50:55;;;;;;;8.60;5.73;;;13.70;99.90;;;;;;5009831;28;20174;-77
2021/09/01 05:53:21;;;;;;;8.03;6.70;;;13.80;99.90;;;;;;5002823;28;20432;-77
2021/09/01 05:55:52;;;;;;;8.13;6.77;;;13.90;99.90;;;;;;5004588;28;20425;-77
2021/09/01 05:58:20;;;;;;;12.73;8.30;;;13.90;99.90;;;;;;5006412;28;20560;-77
2021/09/01 06:00:55;;;;;;;8.60;6.57;;;13.90;99.90;;;;;;5007167;28;20503;-77
2021/09/01 06:03:27;;;;;;;10.83;7.63;;;14.00;99.90;;;;;;5006986;28;20456;-77
2021/09/01 06:05:56;;;;;;;11.23;7.83;;;14.00;99.90;;;;;;5005581;28;20418;-77
2021/09/01 06:08:30;;;;;;;14.43;7.77;;;14.00;99.90;;;;;;5002878;28;20521;-77
2021/09/01 06:10:58;;;;;;;14.60;6.80;;;14.00;99.90;;;;;;5003832;28;20471;-77
2021/09/01 06:13:24;;;;;;;10.07;6.50;;;14.10;99.90;;;;;;5010598;28;20548;-77
2021/09/01 06:15:50;;;;;;;8.27;5.97;;;14.10;99.90;;;;;;5011512;28;20579;-77
2021/09/01 06:18:16;;;;;;;10.93;6.57;;;14.10;99.90;;;;;;5008402;28;20433;-77
2021/09/01 06:20:41;;;;;;;7.47;6.57;;;14.10;99.90;;;;;;5009183;28;20437;-77
2021/09/01 06:23:07;;;;;;;6.90;5.20;;;14.20;99.90;;;;;;5006520;28;20244;-77
2021/09/01 06:25:33;;;;;;;9.50;5.80;;;14.10;99.90;;;;;;5009578;28;20179;-77
2021/09/01 06:27:59;;;;;;;8.30;6.17;;;14.10;99.90;;;;;;5010120;28;20448;-77
2021/09/01 06:30:25;;;;;;;8.17;6.50;;;14.20;99.90;;;;;;5004212;28;20533;-77
2021/09/01 06:32:51;;;;;;;7.40;5.50;;;14.20;99.90;;;;;;5012005;28;20429;-77
2021/09/01 06:35:17;;;;;;;6.47;5.70;;;14.20;99.90;;;;;;5008282;28;20191;-77
2021/09/01 06:37:45;;;;;;;11.37;6.83;;;14.30;99.90;;;;;;5010151;28;20177;-77
2021/09/01 06:40:13;;;;;;;12.73;6.90;;;14.20;99.90;;;;;;5005647;28;20461;-77
2021/09/01 06:42:38;;;;;;;10.63;6.03;;;14.00;99.90;;;;;;5002549;28;20445;-73
2021/09/01 06:45:05;;;;;;;7.43;6.63;;;14.00;99.90;;;;;;5007342;28;21374;-73
2021/09/01 06:47:44;;;;;;;6.30;5.70;;;14.00;99.90;;;;;;5005071;28;20170;-73
2021/09/01 06:50:13;;;;;;;7.33;6.63;;;14.00;99.90;;;;;;5006197;28;20434;-74
2021/09/01 06:52:39;;;;;;;8.80;5.97;;;14.10;99.90;;;;;;5003785;28;20781;-74
2021/09/01 06:55:05;;;;;;;7.17;6.40;;;14.10;99.90;;;;;;5003055;28;20855;-73
2021/09/01 06:57:31;;;;;;;8.67;6.20;;;14.20;99.90;;;;;;5000059;28;20528;-74
2021/09/01 06:59:56;;;;;;;11.53;8.67;;;14.20;99.90;;;;;;4998450;28;20178;-74
2021/09/01 07:02:22;;;;;;;10.70;6.00;;;14.30;99.90;;;;;;4994996;28;20620;-73
2021/09/01 07:04:48;;;;;;;6.37;5.70;;;14.30;99.90;;;;;;4999136;28;20293;-73
2021/09/01 07:07:13;;;;;;;7.23;6.23;;;14.30;99.90;;;;;;5004220;28;20171;-73
2021/09/01 07:09:39;;;;;;;12.20;7.67;;;14.40;99.90;;;;;;5002254;28;20653;-73
2021/09/01 07:12:05;;;;;;;10.00;7.47;;;14.30;99.90;;;;;;5008496;28;20574;-73
2021/09/01 07:14:30;;;;;;;10.87;7.13;;;14.40;99.90;;;;;;5001935;28;20294;-73
2021/09/01 07:16:56;;;;;;;9.13;7.03;;;14.50;99.90;;;;;;5007541;28;20612;-73
2021/09/01 07:19:21;;;;;;;9.97;7.60;;;14.50;99.90;;;;;;5006419;28;20690;-74
2021/09/01 07:21:47;;;;;;;10.80;7.90;;;14.70;99.90;;;;;;5003764;28;20209;-73
2021/09/01 07:24:13;;;;;;;11.17;8.10;;;14.70;99.90;;;;;;5003075;28;20206;-73
2021/09/01 07:26:38;;;;;;;11.13;7.27;;;14.70;99.90;;;;;;5007790;28;20262;-73
2021/09/01 07:29:04;;;;;;;5.57;5.00;;;14.80;99.90;;;;;;5006554;28;20189;-74
2021/09/01 07:31:31;;;;;;;10.50;7.10;;;14.90;99.90;;;;;;5002766;28;20564;-73
2021/09/01 07:33:58;;;;;;;10.57;7.77;;;15.00;99.90;;;;;;4996885;28;20218;-73
2021/09/01 07:36:24;;;;;;;6.77;6.13;;;15.10;99.90;;;;;;5002673;28;20460;-73
2021/09/01 07:38:50;;;;;;;14.13;8.57;;;15.20;99.90;;;;;;4999297;28;20433;-73
2021/09/01 07:41:15;;;;;;;11.50;7.57;;;15.30;99.90;;;;;;5000280;28;20426;-73
2021/09/01 07:43:42;;;;;;;8.33;6.03;;;15.40;99.90;;;;;;5006581;28;20619;-73
2021/09/01 07:46:08;;;;;;;10.10;7.17;;;15.40;99.90;;;;;;4998148;28;20781;-73
2021/09/01 07:48:35;;;;;;;13.87;8.50;;;15.50;99.90;;;;;;5000276;28;20529;-73
2021/09/01 07:51:02;;;;;;;17.00;8.60;;;15.60;99.90;;;;;;5004079;28;20422;-73
2021/09/01 07:53:28;;;;;;;12.70;7.27;;;15.80;99.90;;;;;;5003502;28;20476;-73
2021/09/01 07:55:54;;;;;;;13.57;7.80;;;15.80;99.90;;;;;;5010087;28;20511;-73
2021/09/01 07:58:19;;;;;;;9.63;6.97;;;15.90;99.90;;;;;;5011136;28;20433;-73
2021/09/01 08:00:45;;;;;;;8.97;6.70;;;16.00;99.90;;;;;;4998546;28;20433;-73
2021/09/01 08:03:11;;;;;;;14.20;8.00;;;16.10;99.90;;;;;;4999635;28;20183;-73
2021/09/01 08:05:37;;;;;;;13.43;7.10;;;16.20;99.90;;;;;;4997598;28;20270;-73
2021/09/01 08:08:03;;;;;;;14.17;8.20;;;16.30;99.90;;;;;;5004221;28;20672;-74
2021/09/01 08:10:29;;;;;;;12.37;7.37;;;16.50;99.90;;;;;;5003259;28;20438;-74
2021/09/01 08:12:54;;;;;;;12.00;8.13;;;16.60;99.90;;;;;;5006954;28;20775;-74
2021/09/01 08:15:20;;;;;;;12.73;7.73;;;16.70;99.90;;;;;;5005645;28;20253;-74
2021/09/01 08:17:46;;;;;;;11.77;8.23;;;16.70;99.90;;;;;;5000229;28;20189;-74
2021/09/01 08:20:12;;;;;;;7.53;6.80;;;16.70;99.90;;;;;;4999765;28;20785;-74
2021/09/01 08:22:38;;;;;;;11.90;7.63;;;16.80;99.90;;;;;;5001616;28;21066;-74
2021/09/01 08:25:05;;;;;;;8.63;6.27;;;16.90;99.90;;;;;;5000927;28;20556;-74
2021/09/01 08:27:30;;;;;;;9.23;7.73;;;17.00;99.90;;;;;;4998739;28;20192;-74
2021/09/01 08:29:56;;;;;;;13.70;7.63;;;17.00;99.90;;;;;;5000954;28;20448;-74
2021/09/01 08:32:22;;;;;;;11.70;6.57;;;17.10;99.90;;;;;;5011746;28;20189;-74
2021/09/01 08:34:49;;;;;;;10.30;6.00;;;17.10;99.90;;;;;;5005264;28;20506;-74
2021/09/01 08:37:15;;;;;;;7.83;6.17;;;17.10;99.90;;;;;;5000630;28;20484;-74
2021/09/01 08:39:41;;;;;;;13.13;7.53;;;17.20;99.90;;;;;;5003571;28;20506;-74
2021/09/01 08:42:07;;;;;;;10.73;7.10;;;17.30;99.90;;;;;;5010176;28;20432;-74
2021/09/01 08:44:32;;;;;;;11.20;7.03;;;17.30;99.90;;;;;;5002453;28;20526;-74
2021/09/01 08:47:00;;;;;;;12.10;7.20;;;17.30;99.90;;;;;;5003860;28;20562;-74
2021/09/01 08:49:27;;;;;;;9.50;7.00;;;17.40;99.90;;;;;;5005073;28;20186;-74
2021/09/01 08:51:54;;;;;;;10.80;8.40;;;17.50;99.90;;;;;;5005301;28;20922;-74
2021/09/01 08:54:19;;;;;;;8.73;6.40;;;17.50;99.90;;;;;;5009057;28;20448;-74
2021/09/01 08:56:45;;;;;;;11.20;6.70;;;17.60;99.90;;;;;;5002538;28;20433;-74
2021/09/01 08:59:11;;;;;;;8.27;6.47;;;17.70;99.90;;;;;;5003118;28;20271;-74
2021/09/01 09:01:39;;;;;;;7.30;6.53;;;17.70;99.90;;;;;;4998567;28;20193;-74
2021/09/01 09:04:06;;;;;;;9.97;6.80;;;17.60;99.90;;;;;;4997486;28;20597;-74
2021/09/01 09:06:54;;;;;;;9.73;6.60;;;17.80;99.90;;;;;;5002456;28;20437;-74
2021/09/01 09:09:31;;;;;;;8.30;6.67;;;17.90;99.90;;;;;;4997290;28;20431;-74
2021/09/01 09:12:00;;;;;;;8.70;6.07;;;18.10;99.90;;;;;;5002854;28;20472;-74
2021/09/01 09:14:32;;;;;;;10.20;6.17;;;18.00;99.90;;;;;;4998643;28;20434;-74
2021/09/01 09:17:12;;;;;;;8.10;6.00;;;18.10;99.90;;;;;;4997921;28;20449;-74
2021/09/01 09:19:44;;;;;;;10.93;7.43;;;18.20;99.90;;;;;;5006019;28;20603;-73
2021/09/01 09:22:10;;;;;;;9.07;5.80;;;18.10;99.90;;;;;;4998482;28;20739;-74
2021/09/01 09:24:37;;;;;;;5.17;4.70;;;18.20;99.90;;;;;;4997364;28;20477;-74
2021/09/01 09:27:04;;;;;;;7.53;6.80;;;18.30;99.90;;;;;;5003773;28;20907;-74
2021/09/01 09:29:30;;;;;;;6.43;5.47;;;18.50;99.90;;;;;;5003419;28;20461;-74
2021/09/01 09:32:08;;;;;;;7.67;5.67;;;18.50;99.90;;;;;;4999555;28;20527;-74
2021/09/01 09:34:40;;;;;;;11.87;6.50;;;18.70;99.90;;;;;;5016124;28;20461;-74
2021/09/01 09:37:08;;;;;;;13.07;7.40;;;18.90;99.90;;;;;;5001964;28;20937;-74
2021/09/01 09:39:41;;;;;;;6.87;5.93;;;18.90;99.90;;;;;;4994848;28;20502;-74
2021/09/01 09:42:09;;;;;;;7.33;6.13;;;18.90;99.90;;;;;;4998468;28;20429;-74
2021/09/01 09:44:34;;;;;;;7.43;6.27;;;19.00;99.90;;;;;;5004075;28;20526;-74
2021/09/01 09:47:00;;;;;;;7.80;5.57;;;19.20;99.90;;;;;;5004330;28;20469;-74
2021/09/01 09:49:30;;;;;;;5.60;4.70;;;19.40;99.90;;;;;;5001660;28;20179;-74
2021/09/01 09:51:57;;;;;;;6.67;5.40;;;19.80;99.90;;;;;;4996725;28;20175;-74
2021/09/01 09:54:25;;;;;;;11.30;5.50;;;20.00;99.90;;;;;;4999298;28;20969;-74
2021/09/01 09:57:04;;;;;;;10.90;6.07;;;19.90;99.90;;;;;;5006542;28;20437;-74
2021/09/01 09:59:32;;;;;;;12.13;6.60;;;19.90;99.90;;;;;;5001542;28;20437;-74
2021/09/01 10:01:58;;;;;;;6.43;5.00;;;19.90;99.90;;;;;;5008399;28;20464;-74
2021/09/01 10:04:28;;;;;;;10.43;6.53;;;20.00;99.90;;;;;;5002094;28;20491;-74
2021/09/01 10:06:54;;;;;;;7.93;6.20;;;20.20;99.90;;;;;;5011240;28;20185;-74
2021/09/01 10:09:20;;;;;;;10.83;6.40;;;20.30;99.90;;;;;;5007211;28;20755;-74
2021/09/01 10:11:47;;;;;;;9.37;6.17;;;20.30;99.90;;;;;;5010244;28;20619;-74
2021/09/01 10:14:22;;;;;;;6.50;5.80;;;20.10;99.90;;;;;;5002421;28;20205;-74
2021/09/01 10:17:00;;;;;;;9.30;6.10;;;20.00;99.90;;;;;;5002213;28;20431;-74
2021/09/01 10:19:30;;;;;;;7.60;5.37;;;20.10;99.90;;;;;;5002740;28;20448;-74
2021/09/01 13:01:33;;;;;;;4.50;4.07;;;24.70;99.90;;;;;;4577838;31;20469;-75
2021/09/01 13:03:58;;;;;;;8.03;4.70;;;24.70;99.90;;;;;;4597247;30;20826;-75
2021/09/01 13:06:24;;;;;;;5.53;4.60;;;24.50;99.90;;;;;;4655612;30;20206;-75
2021/09/01 13:08:50;;;;;;;6.70;4.70;;;24.50;99.90;;;;;;4666441;30;20206;-76
2021/09/01 13:11:16;;;;;;;5.63;4.47;;;24.70;99.90;;;;;;4670437;30;20262;-76
2021/09/01 13:13:41;;;;;;;5.90;4.90;;;24.90;99.90;;;;;;4671297;30;20635;-75
2021/09/01 13:16:07;;;;;;;4.80;4.37;;;24.80;99.90;;;;;;4667207;30;20200;-75
2021/09/01 13:18:33;;;;;;;6.73;4.20;;;24.40;99.90;;;;;;4643066;30;20217;-75
2021/09/01 13:20:58;;;;;;;6.50;4.83;;;24.30;99.90;;;;;;4648808;30;20597;-73
2021/09/01 13:23:24;;;;;;;6.70;4.93;;;24.50;99.90;;;;;;4625218;30;20656;-73
2021/09/01 13:25:50;;;;;;;6.60;5.23;;;24.70;99.90;;;;;;4632832;30;20231;-72
2021/09/01 13:28:15;;;;;;;5.00;3.93;;;24.90;99.90;;;;;;4629664;30;20207;-73
2021/09/01 13:30:42;;;;;;;7.67;4.50;;;25.20;99.90;;;;;;4644405;30;20202;-73
2021/09/01 13:33:07;;;;;;;6.80;5.00;;;25.40;99.90;;;;;;4662166;30;20237;-73
2021/09/01 13:35:33;;;;;;;5.10;4.70;;;25.70;99.90;;;;;;4633842;30;20593;-73
2021/09/01 13:37:59;;;;;;;7.37;4.60;;;26.00;99.90;;;;;;4652784;30;20202;-72
2021/09/01 13:40:25;;;;;;;4.40;4.00;;;26.00;99.90;;;;;;4661982;30;20705;-72
2021/09/01 13:42:52;;;;;;;4.50;4.10;;;25.80;99.90;;;;;;4691960;30;20585;-72
2021/09/01 13:45:18;;;;;;;5.17;4.40;;;25.80;99.90;;;;;;4692128;30;20289;-72
2021/09/01 13:47:43;;;;;;;5.87;4.17;;;25.90;99.90;;;;;;4689018;30;20556;-73
2021/09/01 13:50:09;;;;;;;5.27;4.13;;;26.00;99.90;;;;;;4664966;30;20205;-73
2021/09/01 13:52:36;;;;;;;7.67;4.57;;;26.00;99.90;;;;;;4722463;30;20216;-75
2021/09/01 13:55:03;;;;;;;5.20;4.70;;;25.80;99.90;;;;;;4722970;30;20197;-75
2021/09/01 13:57:29;;;;;;;5.03;3.90;;;25.90;99.90;;;;;;4713318;30;20460;-75
2021/09/01 13:59:54;;;;;;;5.13;4.63;;;26.00;99.90;;;;;;4699501;30;20794;-75
2021/09/01 14:02:20;;;;;;;4.60;4.07;;;26.20;99.90;;;;;;4713231;30;20208;-75
2021/09/01 14:04:46;;;;;;;3.97;3.57;;;26.30;99.90;;;;;;4705924;30;20325;-75
2021/09/01 14:07:11;;;;;;;3.83;3.53;;;26.40;99.90;;;;;;4681797;30;20255;-75
2021/09/01 14:09:37;;;;;;;5.17;4.67;;;26.40;99.90;;;;;;4685467;30;20289;-75
2021/09/01 14:12:03;;;;;;;5.00;4.50;;;26.50;99.90;;;;;;4672295;30;20908;-75
2021/09/01 14:14:29;;;;;;;5.90;4.80;;;26.60;99.90;;;;;;4684446;30;20208;-73
2021/09/01 14:16:54;;;;;;;6.23;4.50;;;26.40;99.90;;;;;;4668870;30;20216;-73
2021/09/01 14:19:20;;;;;;;6.43;5.40;;;26.20;99.90;;;;;;4662777;30;20230;-73
2021/09/01 14:21:46;;;;;;;5.03;4.37;;;25.90;99.90;;;;;;4655707;30;20564;-73
2021/09/01 14:24:11;;;;;;;4.90;4.50;;;25.60;99.90;;;;;;4662670;30;20269;-73
2021/09/01 14:26:37;;;;;;;6.73;4.60;;;25.30;99.90;;;;;;4619921;30;20210;-73
2021/09/01 14:29:03;;;;;;;6.23;4.40;;;25.30;99.90;;;;;;4613609;30;20215;-73
2021/09/01 14:31:28;;;;;;;10.70;6.33;;;25.30;99.90;;;;;;4649024;30;20200;-73
2021/09/01 14:33:54;;;;;;;6.20;5.60;;;25.00;99.90;;;;;;4626142;30;20203;-73
2021/09/01 14:36:20;;;;;;;6.73;4.30;;;24.50;99.90;;;;;;4655039;30;20220;-73
2021/09/01 14:38:48;;;;;;;7.20;4.97;;;24.30;99.90;;;;;;4650043;30;20211;-72
2021/09/01 14:41:14;;;;;;;4.97;4.47;;;24.30;99.90;;;;;;4646672;30;20199;-73
2021/09/01 14:43:41;;;;;;;4.70;4.23;;;24.10;99.90;;;;;;4630316;30;20572;-72
2021/09/01 14:46:07;;;;;;;5.17;4.70;;;23.90;99.90;;;;;;4632910;30;20794;-73
2021/09/01 14:48:33;;;;;;;4.93;4.00;;;24.00;99.90;;;;;;4596637;30;20461;-73
2021/09/01 14:50:58;;;;;;;5.60;4.40;;;24.30;99.90;;;;;;4615929;30;20215;-73
2021/09/01 14:53:24;;;;;;;6.27;5.67;;;24.30;99.90;;;;;;4646270;30;20202;-73
2021/09/01 14:55:50;;;;;;;8.27;4.70;;;24.20;99.90;;;;;;4672197;30;22074;-73
2021/09/01 14:58:15;;;;;;;6.33;4.73;;;24.20;99.90;;;;;;4648814;30;20426;-73
2021/09/01 15:00:43;;;;;;;10.10;4.60;;;24.40;99.90;;;;;;4674540;30;20261;-73
2021/09/01 15:03:09;;;;;;;5.83;5.20;;;24.40;99.90;;;;;;4661282;30;20284;-73
2021/09/01 15:05:34;;;;;;;5.63;4.83;;;24.30;99.90;;;;;;4659854;30;20697;-73
2021/09/01 15:08:00;;;;;;;5.47;4.80;;;24.00;99.90;;;;;;4663052;30;20214;-73
2021/09/01 15:10:26;;;;;;;9.10;5.93;;;23.80;99.90;;;;;;4670495;30;20218;-75
2021/09/01 15:12:52;;;;;;;4.50;4.10;;;23.90;99.90;;;;;;4677988;30;20447;-75
2021/09/01 15:15:17;;;;;;;5.90;5.30;;;24.10;99.90;;;;;;4688877;30;20539;-75
2021/09/01 15:17:45;;;;;;;4.73;3.90;;;24.50;99.90;;;;;;4698958;30;20205;-74